Latest Weather Observations for Willis Island

IDQ60801

Issued at 5:02 pm EST Wednesday 29 March 2017 (issued every 30 minutes, with the page automatically refreshed every 10 minutes)

About weather observations | Map of weather stations | Latest weather observations for QLD | Other Formats
Station Details ID: 200283 Name: WILLIS ISLAND Lat: -16.29 Lon: 149.97 Height: 9.29 m
Data from the previous 72 hours. | See also: Recent months at Willis Island
Date/Time
EST
Temp
°C
App
Temp
°C
Dew
Point
°C
Rel
Hum
%
Delta-T
°C
Wind Press
QNH
hPa
Press
MSL
hPa
Rain since
9am
mm
Dir  Spd
km/h
Gust
km/h
Spd
kts
Gust
kts
29/05:00pm 28.5 28.8 26.4 88 1.5 NNE 37 41 20 22 1007.5 1007.4 0.0
29/04:30pm 28.6 28.6 26.4 88 1.6 N 39 44 21 24 1007.5 1007.4 0.0
29/04:00pm 28.7 29.0 26.3 87 1.7 N 37 43 20 23 1007.3 1007.2 0.0
29/03:30pm 29.1 29.8 26.4 85 1.9 N 35 41 19 22 1007.0 1006.9 0.0
29/03:00pm 29.2 29.5 26.3 84 2.1 N 37 44 20 24 1006.6 1006.5 0.0
29/02:30pm 29.7 30.3 26.8 84 2.1 N 37 43 20 23 1006.8 1006.7 0.0
29/02:00pm 29.8 31.7 27.3 86 1.8 NNE 32 37 17 20 1007.1 1007.0 0.0
29/01:30pm 29.9 31.7 27.1 85 2.0 NNE 32 37 17 20 1007.4 1007.3 0.0
29/01:00pm 29.5 31.0 27.0 86 1.8 NNE 33 39 18 21 1007.6 1007.5 0.0
29/12:30pm 29.9 31.4 27.0 84 2.1 N 33 37 18 20 1008.0 1007.9 0.0
29/12:00pm 29.8 30.7 26.7 83 2.2 N 35 41 19 22 1008.3 1008.2 0.0
29/11:30am 29.6 30.5 26.7 84 2.1 N 35 41 19 22 1008.6 1008.5 0.0
29/11:00am 29.8 31.4 26.9 84 2.1 N 32 37 17 20 1008.9 1008.8 0.0
29/10:30am 29.8 31.2 26.9 84 2.1 N 33 39 18 21 1009.1 1009.0 0.0
29/10:00am 29.7 31.3 26.9 85 2.0 N 32 35 17 19 1009.3 1009.2 0.0
29/09:30am 29.5 31.0 26.7 85 2.0 N 32 37 17 20 1009.2 1009.1 0.0
29/09:00am 29.0 30.2 26.3 85 1.9 N 32 39 17 21 1009.1 1009.0 0.0
29/08:30am 29.0 30.6 26.8 88 1.6 N 32 37 17 20 1008.9 1008.8 0.0
29/08:00am 28.8 30.3 26.7 88 1.5 N 32 37 17 20 1008.5 1008.4 0.0
29/07:30am 28.5 28.2 26.0 86 1.8 N 39 44 21 24 1008.0 1007.9 0.0
29/07:00am 28.2 28.6 25.9 87 1.6 N 35 43 19 23 1007.9 1007.8 0.0
29/06:30am 27.9 28.1 25.6 87 1.6 N 35 43 19 23 1007.5 1007.4 0.0
29/06:00am 27.3 26.5 24.7 86 1.8 N 37 41 20 22 1007.0 1006.9 0.0
29/05:30am 26.8 24.8 24.8 89 1.4 N 44 56 24 30 1006.8 1006.7 0.0
29/05:00am 28.1 27.6 25.7 87 1.7 N 39 46 21 25 1006.6 1006.5 0.0
29/04:30am 28.2 28.3 26.1 88 1.5 N 37 46 20 25 1006.2 1006.1 0.0
29/04:00am 28.2 27.8 25.9 87 1.6 N 39 44 21 24 1005.7 1005.6 0.0
29/03:30am 28.3 28.0 26.0 87 1.6 N 39 46 21 25 1005.7 1005.6 0.0
29/03:00am 28.3 28.5 26.2 88 1.5 N 37 44 20 24 1006.1 1006.0 0.0
29/02:30am 28.2 28.4 26.2 89 1.4 N 37 43 20 23 1005.8 1005.7 0.0
29/02:00am 28.1 28.0 25.8 87 1.6 N 37 44 20 24 1006.1 1006.0 0.0
29/01:30am 28.0 26.5 25.4 86 1.8 N 43 52 23 28 1005.8 1005.7 0.0
29/01:00am 28.0 26.0 25.4 86 1.8 N 46 59 25 32 1005.4 1005.3 0.0
29/12:30am 28.3 27.2 26.0 87 1.6 N 43 52 23 28 1005.8 1005.7 0.0
29/12:00am 28.3 27.2 26.0 87 1.6 N 43 50 23 27 1006.5 1006.4 0.0
 
Date/Time
EST
Temp
°C
App
Temp
°C
Dew
Point
°C
Rel
Hum
%
Delta-T
°C
Wind Press
QNH
hPa
Press
MSL
hPa
Rain since
9am
mm
Dir  Spd
km/h
Gust
km/h
Spd
kts
Gust
kts
28/11:30pm 28.3 28.1 26.2 88 1.5 N 39 44 21 24 1007.1 1007.0 0.0
28/11:00pm 28.3 27.9 25.9 87 1.7 N 39 46 21 25 1007.1 1007.0 0.0
28/10:30pm 28.4 27.9 26.3 88 1.5 N 41 48 22 26 1006.8 1006.7 0.0
28/10:00pm 28.4 27.3 25.9 86 1.8 N 43 50 23 27 1006.4 1006.3 0.0
28/09:30pm 28.5 28.5 26.4 88 1.5 N 39 46 21 25 1006.2 1006.1 0.0
28/09:00pm 28.5 28.1 26.5 89 1.4 N 41 46 22 25 1006.0 1005.9 0.0
28/08:30pm 28.5 28.5 26.4 88 1.5 N 39 46 21 25 1005.9 1005.8 0.0
28/08:00pm 28.5 28.5 26.4 88 1.5 N 39 46 21 25 1005.9 1005.8 0.0
28/07:30pm 28.5 28.0 26.3 88 1.6 N 41 48 22 26 1005.5 1005.4 0.0
28/07:00pm 28.5 27.6 26.3 88 1.6 N 43 48 23 26 1005.0 1004.9 0.0
28/06:30pm 28.6 27.9 26.5 88 1.5 N 43 48 23 26 1004.7 1004.6 0.0
28/06:00pm 28.6 27.6 26.4 88 1.6 N 44 54 24 29 1004.2 1004.1 0.0
28/05:30pm 28.7 27.6 26.2 86 1.8 N 44 52 24 28 1003.7 1003.6 0.0
28/05:00pm 28.8 27.7 26.3 86 1.8 N 44 52 24 28 1003.5 1003.4 0.0
28/04:30pm 28.9 27.9 26.4 86 1.8 N 44 50 24 27 1003.1 1003.0 0.0
28/04:00pm 29.0 27.9 26.3 85 1.9 NNW 44 54 24 29 1002.9 1002.8 0.0
28/03:30pm 29.1 28.3 26.7 87 1.7 N 44 54 24 29 1002.9 1002.8 0.0
28/03:00pm 29.3 28.1 26.7 86 1.9 N 46 54 25 29 1003.1 1003.0 0.0
28/02:30pm 29.6 28.9 26.8 85 2.0 N 44 54 24 29 1002.9 1002.8 0.0
28/02:00pm 29.8 28.6 26.7 83 2.2 N 46 54 25 29 1003.0 1002.9 0.0
28/01:30pm 30.0 29.5 26.8 83 2.3 N 43 52 23 28 1003.4 1003.3 0.0
28/01:00pm 30.1 29.6 26.8 82 2.4 N 43 50 23 27 1003.7 1003.6 0.0
28/12:30pm 30.1 29.6 26.9 83 2.3 NNW 43 54 23 29 1004.1 1004.0 0.0
28/12:00pm 29.9 30.1 26.8 83 2.2 NNW 39 48 21 26 1004.6 1004.5 0.0
28/11:30am 30.1 30.2 26.6 81 2.5 NNW 39 46 21 25 1005.1 1005.0 0.0
28/11:00am 30.2 30.4 26.7 81 2.5 NNW 39 48 21 26 1005.3 1005.2 0.0
28/10:30am 29.9 29.7 26.7 83 2.3 NNW 41 50 22 27 1005.5 1005.4 0.0
28/10:00am 29.5 28.8 26.6 84 2.1 NNW 43 52 23 28 1005.6 1005.5 0.0
28/09:30am 29.3 28.6 26.5 85 2.0 NNW 43 54 23 29 1005.4 1005.3 0.0
28/09:00am 29.3 28.7 26.2 83 2.2 NNW 41 50 22 27 1005.6 1005.5 2.0
28/08:30am 29.1 28.0 26.3 85 2.0 NNW 44 56 24 30 1005.6 1005.5 2.0
28/08:00am 28.9 27.7 26.1 85 2.0 NNW 44 54 24 29 1005.2 1005.1 2.0
28/07:30am 28.8 27.6 26.1 85 1.9 NNW 44 50 24 27 1005.0 1004.9 2.0
28/07:00am 28.7 27.1 26.0 85 1.9 NNW 46 59 25 32 1004.5 1004.4 2.0
28/06:30am 28.5 26.5 26.1 87 1.7 NNW 48 57 26 31 1003.9 1003.8 2.0
28/06:00am 28.4 26.0 26.0 87 1.7 NNW 50 59 27 32 1003.3 1003.2 2.0
28/05:30am 28.4 26.1 26.2 88 1.6 NNW 50 61 27 33 1002.9 1002.8 2.0
28/05:00am 28.4 25.7 26.2 88 1.6 NNW 52 63 28 34 1002.5 1002.4 2.0
28/04:30am 28.4 25.4 26.3 88 1.5 NNW 54 65 29 35 1002.0 1001.9 2.0
28/04:00am 28.3 25.8 26.5 90 1.3 NNW 52 59 28 32 1002.1 1002.0 2.0
28/03:30am 28.4 26.5 26.2 88 1.6 NNW 48 59 26 32 1002.1 1002.0 2.0
28/03:00am 28.4 27.0 26.3 88 1.5 NNW 46 56 25 30 1002.5 1002.4 2.0
28/02:30am 28.4 27.4 26.4 89 1.4 NNW 44 54 24 29 1002.7 1002.6 2.0
28/02:00am 28.4 27.4 26.4 89 1.4 NNW 44 54 24 29 1002.9 1002.8 2.0
28/01:30am 28.5 28.3 26.7 90 1.3 NNW 41 48 22 26 1003.5 1003.4 2.0
28/01:00am 28.6 28.7 26.6 89 1.4 NNW 39 48 21 26 1004.0 1003.9 2.0
28/12:30am 28.6 28.7 26.6 89 1.4 NNW 39 48 21 26 1004.4 1004.3 2.0
28/12:00am 28.6 28.6 26.5 88 1.5 NNW 39 48 21 26 1004.5 1004.4 2.0
 
Date/Time
EST
Temp
°C
App
Temp
°C
Dew
Point
°C
Rel
Hum
%
Delta-T
°C
Wind Press
QNH
hPa
Press
MSL
hPa
Rain since
9am
mm
Dir  Spd
km/h
Gust
km/h
Spd
kts
Gust
kts
27/11:30pm 28.6 29.0 26.5 88 1.5 NNW 37 43 20 23 1004.6 1004.5 2.0
27/11:00pm 28.7 28.6 26.3 87 1.7 NNW 39 46 21 25 1004.9 1004.8 2.0
27/10:30pm 28.8 30.0 26.3 86 1.8 NW 32 39 17 21 1005.2 1005.1 2.0
27/10:00pm 28.8 30.4 26.3 86 1.8 NW 30 39 16 21 1005.3 1005.2 2.0
27/09:30pm 28.7 29.3 26.2 86 1.8 NW 35 43 19 23 1005.3 1005.2 2.0
27/09:00pm 28.7 30.0 26.5 88 1.6 NW 32 41 17 22 1004.8 1004.7 2.0
27/08:30pm 28.7 29.9 26.3 87 1.7 NW 32 43 17 23 1004.5 1004.4 2.0
27/08:00pm 28.7 29.9 26.5 88 1.6 NW 33 43 18 23 1004.2 1004.1 2.0
27/07:30pm 28.7 29.9 26.5 88 1.6 NW 33 43 18 23 1004.0 1003.9 2.0
27/07:00pm 28.7 30.0 26.5 88 1.6 NW 32 41 17 22 1004.0 1003.9 2.0
27/06:30pm 28.8 29.4 26.3 86 1.8 NW 35 44 19 24 1003.8 1003.7 2.0
27/06:00pm 28.9 28.5 25.9 84 2.1 NW 39 48 21 26 1003.4 1003.3 2.0
27/05:30pm 28.8 28.7 25.7 83 2.2 NW 37 48 20 26 1002.9 1002.8 2.0
27/05:00pm 28.8 28.3 25.1 80 2.6 NW 37 46 20 25 1002.7 1002.6 2.0
27/04:30pm 28.9 28.8 25.1 80 2.7 WNW 35 46 19 25 1002.7 1002.6 2.0
27/04:00pm 28.7 26.9 24.2 76 3.1 WNW 41 50 22 27 1002.7 1002.6 2.0
27/03:30pm 28.7 27.8 25.1 81 2.5 WNW 39 46 21 25 1002.7 1002.6 2.0
27/03:00pm 28.5 27.5 24.9 81 2.5 WNW 39 50 21 27 1002.5 1002.4 2.0
27/02:47pm 28.4 26.7 23.8 76 3.2 NW 39 57 21 31 1002.3 1002.2 2.0
27/02:30pm 28.3 28.6 25.2 83 2.2 NW 33 43 18 23 1002.7 1002.6 2.0
27/02:00pm 27.3 27.1 25.0 87 1.6 NW 35 48 19 26 1003.0 1002.9 1.4
27/01:30pm 27.5 25.5 24.6 84 2.0 NW 43 56 23 30 1003.4 1003.3 0.8
27/01:00pm 27.4 25.4 24.5 84 2.0 WNW 43 56 23 30 1004.0 1003.9 0.8
27/12:30pm 27.3 24.8 24.7 86 1.8 NW 46 59 25 32 1004.2 1004.1 0.6
27/12:16pm 27.5 25.7 24.9 86 1.8 NW 43 61 23 33 1004.5 1004.4 0.4
27/12:00pm 27.6 25.1 24.7 84 2.0 NW 46 63 25 34 1004.8 1004.7 0.4
27/11:30am 27.6 25.3 24.9 85 1.9 WNW 46 61 25 33 1004.8 1004.7 0.4
27/11:19am 27.6 25.7 25.0 86 1.8 WNW 44 63 24 34 1004.9 1004.8 0.4
27/11:00am 27.6 25.3 25.0 86 1.8 WNW 46 61 25 33 1005.1 1005.0 0.4
27/10:30am 27.3 24.4 25.2 88 1.5 WNW 50 61 27 33 1005.7 1005.6 0.4
27/10:00am 27.0 24.9 24.6 87 1.7 NW 44 57 24 31 1006.1 1006.0 0.4
27/09:43am 27.1 24.3 24.8 87 1.6 WNW 48 67 26 36 1006.1 1006.0 0.0
27/09:30am 27.7 23.9 25.0 85 1.9 WNW 54 65 29 35 1005.8 1005.7 0.0
27/09:02am 27.9 23.9 24.6 82 2.3 WNW 54 72 29 39 1005.5 1005.4 0.0
27/09:00am 28.0 24.6 25.0 84 2.1 WNW 52 67 28 36 1005.5 1005.4 40.0
27/08:50am 28.3 25.6 25.6 85 1.9 WNW 50 69 27 37 1005.4 1005.3 40.0
27/08:30am 28.2 25.0 25.4 85 2.0 WNW 52 63 28 34 1005.5 1005.4 40.0
27/08:00am 28.3 24.3 24.6 80 2.6 WNW 54 65 29 35 1005.1 1005.0 40.0
27/07:30am 28.1 24.0 24.5 81 2.5 WNW 54 61 29 33 1004.7 1004.6 40.0
27/07:00am 27.9 24.0 24.9 84 2.1 WNW 54 65 29 35 1004.1 1004.0 40.0
27/06:30am 27.9 23.6 24.8 83 2.2 WNW 56 65 30 35 1003.5 1003.4 40.0
27/06:00am 27.5 23.0 24.5 84 2.1 WNW 56 69 30 37 1003.6 1003.5 40.0
27/05:30am 27.6 24.3 25.2 87 1.7 WNW 52 63 28 34 1003.6 1003.5 40.0
27/05:00am 27.4 23.7 25.1 87 1.6 WNW 54 69 29 37 1003.4 1003.3 40.0
27/04:30am 27.3 23.4 24.9 87 1.7 WNW 54 63 29 34 1003.2 1003.1 39.8
27/04:00am 27.2 22.6 25.2 89 1.4 W 59 72 32 39 1003.0 1002.9 39.8
27/03:55am 26.8 22.3 24.8 89 1.4 W 57 72 31 39 1003.0 1002.9 39.8
27/03:39am 27.8 23.7 24.5 82 2.3 WNW 54 76 29 41 1002.7 1002.6 39.6
27/03:30am 27.7 23.4 24.8 84 2.0 WNW 56 69 30 37 1002.7 1002.6 39.6
27/03:00am 27.3 24.6 25.5 90 1.3 WNW 50 61 27 33 1002.4 1002.3 39.6
27/02:30am 26.1 23.9 25.2 95 0.6 WNW 46 54 25 29 1003.1 1003.0 39.2
27/02:12am 24.4 17.9 24.0 98 0.3 W 65 91 35 49 1003.7 1003.6 38.0
27/02:07am 24.7 18.1 24.4 98 0.2 W 67 91 36 49 1004.2 1004.1 34.0
27/02:03am 25.3 20.9 24.9 98 0.3 W 57 91 31 49 1003.8 1003.7 28.2
27/02:01am 25.9 22.5 25.0 95 0.6 W 52 78 28 42 1003.7 1003.6 26.2
27/02:00am 26.2 23.3 25.3 95 0.6 W 50 69 27 37 1003.6 1003.5 25.8
27/01:57am 26.1 23.8 25.0 94 0.8 W 46 59 25 32 1003.6 1003.5 25.6
27/01:30am 25.8 23.3 25.2 96 0.4 WNW 48 57 26 31 1003.4 1003.3 25.0
27/01:10am 27.1 24.1 25.1 89 1.4 WNW 50 74 27 40 1003.9 1003.8 20.2
27/01:00am 27.7 24.7 25.0 85 1.9 WNW 50 61 27 33 1003.8 1003.7 20.2
27/12:30am 27.7 25.6 25.3 87 1.7 WNW 46 59 25 32 1004.1 1004.0 20.0
27/12:00am 27.2 24.0 25.4 90 1.3 WNW 52 63 28 34 1004.5 1004.4 19.8
 
Date/Time
EST
Temp
°C
App
Temp
°C
Dew
Point
°C
Rel
Hum
%
Delta-T
°C
Wind Press
QNH
hPa
Press
MSL
hPa
Rain since
9am
mm
Dir  Spd
km/h
Gust
km/h
Spd
kts
Gust
kts
26/11:30pm 27.2 24.9 25.6 91 1.1 WNW 48 57 26 31 1004.5 1004.4 19.2
26/11:00pm 26.9 23.8 25.5 92 1.0 WNW 52 65 28 35 1004.9 1004.8 19.0
26/10:30pm 26.8 22.2 25.2 91 1.1 W 59 70 32 38 1005.1 1005.0 18.4
26/10:00pm 26.7 22.1 25.3 92 1.0 W 59 72 32 39 1005.3 1005.2 17.8
26/09:30pm 26.8 21.8 25.2 91 1.1 W 61 72 33 39 1005.1 1005.0 17.0
26/09:24pm 26.6 22.8 25.0 91 1.1 W 54 72 29 39 1005.0 1004.9 17.0
26/09:00pm 25.8 21.6 25.2 96 0.4 W 57 72 31 39 1005.1 1005.0 16.0
26/08:30pm 27.3 23.2 25.2 88 1.5 W 56 69 30 37 1004.5 1004.4 8.4
26/08:00pm 27.1 23.9 25.4 90 1.2 W 52 65 28 35 1004.2 1004.1 8.0
26/07:30pm 27.3 23.6 25.2 88 1.5 W 54 63 29 34 1003.9 1003.8 6.8
26/07:00pm 27.4 23.7 25.1 87 1.6 W 54 67 29 36 1003.8 1003.7 6.8
26/06:30pm 28.1 25.4 25.0 83 2.2 W 48 57 26 31 1003.4 1003.3 6.6
26/06:00pm 28.0 25.1 25.2 85 2.0 W 50 61 27 33 1002.8 1002.7 6.6
26/05:30pm 28.1 24.1 24.7 82 2.4 W 54 63 29 34 1002.5 1002.4 6.6

Other Formats:

Comma delimited format used in spreadsheet applications
http://www.bom.gov.au/fwo/IDQ60801/IDQ60801.94299.axf

JavaScript Object Notation format (JSON) in row-major order
http://www.bom.gov.au/fwo/IDQ60801/IDQ60801.94299.json